createdAt,value
2017-12-29T00:00:02.683Z,3.37
2017-12-29T00:02:30.133Z,3.39
2017-12-29T00:04:57.598Z,3.37
2017-12-29T00:07:25.002Z,3.35
2017-12-29T00:09:52.506Z,3.28
2017-12-29T00:12:19.970Z,3.30
2017-12-29T00:14:47.378Z,3.27
2017-12-29T00:17:14.872Z,3.22
2017-12-29T00:19:42.291Z,3.22
2017-12-29T00:22:09.711Z,3.25
2017-12-29T00:24:37.149Z,3.27
2017-12-29T00:27:04.615Z,3.25
2017-12-29T00:29:32.031Z,3.22
2017-12-29T00:31:59.455Z,3.11
2017-12-29T00:34:26.977Z,3.09
2017-12-29T00:36:54.378Z,3.05
2017-12-29T00:39:21.884Z,2.94
2017-12-29T00:41:49.339Z,2.85
2017-12-29T00:44:16.797Z,2.83
2017-12-29T00:46:44.255Z,2.81
2017-12-29T00:49:11.664Z,2.75
2017-12-29T00:51:39.163Z,2.73
2017-12-29T00:54:06.586Z,2.75
2017-12-29T00:56:34.012Z,2.80
2017-12-29T00:59:01.415Z,2.77
2017-12-29T01:01:28.854Z,2.72
2017-12-29T01:03:56.270Z,2.67
2017-12-29T01:06:23.681Z,2.67
2017-12-29T01:08:51.098Z,2.66
2017-12-29T01:11:18.615Z,2.68
2017-12-29T01:13:46.074Z,2.72
2017-12-29T01:16:13.502Z,2.71
2017-12-29T01:18:40.899Z,2.72
2017-12-29T01:21:08.339Z,2.67
2017-12-29T01:23:35.752Z,2.68
2017-12-29T01:26:03.259Z,2.66
2017-12-29T01:28:30.687Z,2.63
2017-12-29T01:30:58.091Z,2.68
2017-12-29T01:33:25.504Z,2.72
2017-12-29T01:35:52.931Z,2.76
2017-12-29T01:38:20.337Z,2.76
2017-12-29T01:40:47.798Z,2.78
2017-12-29T01:43:15.259Z,2.83
2017-12-29T01:45:42.668Z,2.86
2017-12-29T01:48:10.071Z,2.83
2017-12-29T01:50:37.773Z,2.82
2017-12-29T01:53:05.278Z,2.83
2017-12-29T01:55:32.678Z,2.87
2017-12-29T01:58:00.194Z,2.93
2017-12-29T02:00:27.618Z,2.88
2017-12-29T02:02:55.014Z,2.83
2017-12-29T02:05:22.451Z,2.75
2017-12-29T02:07:49.855Z,2.74
2017-12-29T02:10:17.261Z,2.75
2017-12-29T02:12:44.682Z,2.76
2017-12-29T02:15:12.090Z,2.77
2017-12-29T02:17:39.494Z,2.78
2017-12-29T02:20:06.915Z,2.77
2017-12-29T02:22:34.331Z,2.74
2017-12-29T02:25:01.739Z,2.72
2017-12-29T02:27:29.162Z,2.68
2017-12-29T02:29:56.595Z,2.58
2017-12-29T02:32:23.995Z,2.53
2017-12-29T02:34:51.403Z,2.55
2017-12-29T02:37:18.842Z,2.61
2017-12-29T02:39:46.247Z,2.55
2017-12-29T02:42:13.706Z,2.54
2017-12-29T02:44:41.131Z,2.55
2017-12-29T02:47:08.542Z,2.55
2017-12-29T02:49:35.958Z,2.58
2017-12-29T02:52:03.434Z,2.59
2017-12-29T02:54:30.885Z,2.56
2017-12-29T02:56:58.302Z,2.54
2017-12-29T02:59:25.896Z,2.55
2017-12-29T03:01:53.363Z,2.54
2017-12-29T03:04:20.815Z,2.53
2017-12-29T03:06:48.226Z,2.50
2017-12-29T03:09:15.637Z,2.42
2017-12-29T03:11:43.077Z,2.33
2017-12-29T03:14:10.484Z,2.27
2017-12-29T03:16:37.898Z,2.18
2017-12-29T03:19:05.328Z,2.10
2017-12-29T03:21:32.746Z,2.06
2017-12-29T03:24:00.142Z,2.05
2017-12-29T03:26:27.561Z,2.05
2017-12-29T03:28:54.970Z,2.04
2017-12-29T03:31:22.371Z,2.04
2017-12-29T03:33:49.790Z,2.02
2017-12-29T03:36:17.186Z,2.03
2017-12-29T03:38:44.627Z,2.08
2017-12-29T03:41:12.032Z,2.15
2017-12-29T03:43:39.447Z,2.18
2017-12-29T03:46:06.877Z,2.16
2017-12-29T03:48:34.278Z,2.17
2017-12-29T03:51:01.787Z,2.16
2017-12-29T03:53:29.214Z,2.14
2017-12-29T03:55:57.098Z,2.11
2017-12-29T03:58:24.562Z,2.08
2017-12-29T04:00:51.998Z,2.04
2017-12-29T04:03:19.403Z,1.95
2017-12-29T04:05:46.810Z,1.83
2017-12-29T04:08:14.280Z,1.74
2017-12-29T04:10:41.674Z,1.68
2017-12-29T04:13:09.074Z,1.67
2017-12-29T04:15:36.559Z,1.63
2017-12-29T04:18:03.962Z,1.63
2017-12-29T04:20:31.366Z,1.60
2017-12-29T04:22:58.787Z,1.64
2017-12-29T04:25:26.184Z,1.68
2017-12-29T04:27:53.631Z,1.64
2017-12-29T04:30:21.098Z,1.55
2017-12-29T04:32:48.551Z,1.52
2017-12-29T04:35:15.971Z,1.48
2017-12-29T04:37:43.419Z,1.50
2017-12-29T04:40:10.822Z,1.57
2017-12-29T04:42:38.233Z,1.62
2017-12-29T04:45:05.639Z,1.66
2017-12-29T04:47:33.058Z,1.67
2017-12-29T04:50:00.459Z,1.69
2017-12-29T04:52:27.863Z,1.75
2017-12-29T04:54:55.364Z,1.74
2017-12-29T04:57:22.765Z,1.77
2017-12-29T04:59:50.170Z,1.85
2017-12-29T05:02:17.605Z,1.85
2017-12-29T05:04:45.008Z,1.85
2017-12-29T05:07:12.439Z,1.85
2017-12-29T05:09:40.974Z,1.88
2017-12-29T05:12:08.378Z,1.89
2017-12-29T05:14:35.840Z,1.91
2017-12-29T05:17:03.294Z,1.93
2017-12-29T05:19:30.699Z,1.89
2017-12-29T05:21:58.106Z,1.84
2017-12-29T05:24:25.523Z,1.79
2017-12-29T05:26:53.005Z,1.73
2017-12-29T05:29:20.476Z,1.69
2017-12-29T05:31:47.851Z,1.71
2017-12-29T05:34:15.247Z,1.74
2017-12-29T05:36:42.678Z,1.69
2017-12-29T05:39:10.083Z,1.64
2017-12-29T05:41:37.476Z,1.65
2017-12-29T05:44:04.916Z,1.62
2017-12-29T05:46:32.366Z,1.64
2017-12-29T05:48:59.762Z,1.68
2017-12-29T05:51:27.191Z,1.71
2017-12-29T05:53:54.591Z,1.75
2017-12-29T05:56:21.995Z,1.81
2017-12-29T05:58:49.446Z,1.87
2017-12-29T06:01:16.851Z,1.88
2017-12-29T06:03:44.358Z,1.90
2017-12-29T06:06:11.794Z,1.93
2017-12-29T06:08:39.187Z,1.97
2017-12-29T06:11:06.623Z,1.94
2017-12-29T06:13:34.048Z,1.97
2017-12-29T06:16:01.446Z,2.04
2017-12-29T06:18:28.886Z,2.04
2017-12-29T06:20:56.286Z,2.03
2017-12-29T06:23:23.723Z,2.01
2017-12-29T06:25:51.144Z,2.04
2017-12-29T06:28:18.592Z,2.03
2017-12-29T06:30:46.079Z,2.06
2017-12-29T06:33:13.483Z,2.08
2017-12-29T06:35:40.918Z,2.06
2017-12-29T06:38:08.314Z,2.04
2017-12-29T06:40:35.728Z,2.06
2017-12-29T06:43:03.166Z,2.05
2017-12-29T06:45:30.567Z,2.05
2017-12-29T06:47:57.976Z,2.11
2017-12-29T06:50:25.428Z,2.09
2017-12-29T06:52:52.834Z,2.07
2017-12-29T06:55:20.248Z,2.10
2017-12-29T06:57:47.670Z,2.12
2017-12-29T07:00:15.075Z,2.15
2017-12-29T07:02:42.600Z,2.17
2017-12-29T07:05:10.009Z,2.24
2017-12-29T07:07:37.438Z,2.25
2017-12-29T07:10:04.844Z,2.22
2017-12-29T07:12:32.283Z,2.20
2017-12-29T07:14:59.782Z,2.16
2017-12-29T07:17:27.255Z,2.18
2017-12-29T07:19:54.693Z,2.19
2017-12-29T07:22:22.109Z,2.20
2017-12-29T07:24:49.714Z,2.20
2017-12-29T07:27:17.119Z,2.53
2017-12-29T07:29:44.526Z,2.80
2017-12-29T07:32:11.951Z,2.61
2017-12-29T07:34:39.697Z,2.33
2017-12-29T07:37:07.217Z,2.31
2017-12-29T07:39:34.630Z,2.30
2017-12-29T07:42:02.106Z,2.28
2017-12-29T07:44:29.680Z,2.27
2017-12-29T07:46:57.150Z,2.28
2017-12-29T07:49:24.630Z,2.21
2017-12-29T07:51:52.062Z,2.19
2017-12-29T07:54:19.474Z,2.19
2017-12-29T07:56:46.894Z,2.20
2017-12-29T07:59:14.326Z,2.24
2017-12-29T08:01:41.734Z,2.23
2017-12-29T08:04:09.142Z,2.21
2017-12-29T08:06:36.643Z,2.28
2017-12-29T08:09:04.049Z,2.27
2017-12-29T08:11:31.458Z,2.26
2017-12-29T08:13:58.976Z,2.22
2017-12-29T08:16:26.390Z,2.20
2017-12-29T08:18:53.891Z,2.23
2017-12-29T08:21:21.323Z,2.30
2017-12-29T08:23:48.735Z,2.31
2017-12-29T08:26:16.145Z,2.27
2017-12-29T08:28:43.559Z,2.27
2017-12-29T08:31:11.071Z,2.23
2017-12-29T08:33:38.479Z,2.24
2017-12-29T08:36:05.894Z,2.24
2017-12-29T08:38:33.298Z,2.24
2017-12-29T08:41:00.706Z,2.30
2017-12-29T08:43:28.259Z,2.32
2017-12-29T08:45:55.672Z,2.38
2017-12-29T08:48:23.085Z,2.47
2017-12-29T08:50:50.529Z,2.50
2017-12-29T08:53:17.930Z,2.49
2017-12-29T08:55:45.351Z,2.51
2017-12-29T08:58:12.792Z,2.59
2017-12-29T09:00:40.276Z,2.62
2017-12-29T09:03:07.691Z,2.56
2017-12-29T09:05:35.091Z,2.52
2017-12-29T09:08:02.503Z,2.55
2017-12-29T09:10:29.966Z,2.61
2017-12-29T09:12:57.406Z,2.63
2017-12-29T09:15:24.815Z,2.72
2017-12-29T09:17:52.223Z,2.76
2017-12-29T09:20:19.656Z,2.75
2017-12-29T09:22:47.062Z,2.72
2017-12-29T09:25:14.506Z,2.81
2017-12-29T09:27:41.927Z,2.88
2017-12-29T09:30:09.335Z,2.90
2017-12-29T09:32:36.777Z,2.99
2017-12-29T09:35:04.186Z,3.10
2017-12-29T09:37:31.586Z,3.11
2017-12-29T09:39:59.011Z,3.33
2017-12-29T09:42:26.423Z,3.30
2017-12-29T09:44:54.419Z,3.18
2017-12-29T09:47:21.822Z,3.16
2017-12-29T09:49:49.236Z,3.11
2017-12-29T09:52:16.807Z,3.03
2017-12-29T09:54:44.231Z,2.99
2017-12-29T09:57:11.659Z,2.99
2017-12-29T09:59:39.223Z,3.03
2017-12-29T10:02:06.630Z,3.04
2017-12-29T10:04:34.125Z,3.08
2017-12-29T10:07:01.547Z,3.15
2017-12-29T10:09:28.980Z,3.15
2017-12-29T10:11:56.392Z,3.15
2017-12-29T10:14:23.804Z,3.21
2017-12-29T10:16:51.230Z,3.26
2017-12-29T10:19:18.651Z,3.21
2017-12-29T10:21:46.059Z,3.25
2017-12-29T10:24:13.495Z,3.20
2017-12-29T10:26:40.911Z,3.27
2017-12-29T10:29:08.338Z,3.30
2017-12-29T10:31:35.749Z,3.31
2017-12-29T10:34:03.167Z,3.38
2017-12-29T10:36:30.571Z,3.49
2017-12-29T10:38:58.111Z,3.51
2017-12-29T10:41:25.663Z,3.52
2017-12-29T10:43:53.060Z,3.59
2017-12-29T10:46:20.494Z,3.58
2017-12-29T10:48:47.899Z,3.61
2017-12-29T10:51:15.389Z,3.69
2017-12-29T10:53:42.815Z,3.78
2017-12-29T10:56:10.218Z,3.82
2017-12-29T10:58:37.627Z,3.84
2017-12-29T11:01:05.067Z,3.86
2017-12-29T11:03:32.486Z,3.89
2017-12-29T11:05:59.945Z,3.93
2017-12-29T11:08:27.382Z,4.00
2017-12-29T11:10:54.851Z,4.01
2017-12-29T11:13:22.256Z,4.09
2017-12-29T11:15:49.753Z,4.14
2017-12-29T11:18:17.247Z,4.17
2017-12-29T11:20:44.646Z,4.26
2017-12-29T11:23:12.087Z,4.20
2017-12-29T11:25:39.495Z,4.19
2017-12-29T11:28:06.955Z,4.09
2017-12-29T11:30:34.389Z,4.08
2017-12-29T11:33:01.863Z,4.11
2017-12-29T11:35:29.308Z,4.14
2017-12-29T11:37:56.732Z,4.21
2017-12-29T11:40:24.231Z,4.24
2017-12-29T11:42:51.643Z,4.29
2017-12-29T11:45:19.163Z,4.24
2017-12-29T11:47:46.542Z,4.20
2017-12-29T11:50:13.946Z,4.15
2017-12-29T11:52:41.390Z,4.03
2017-12-29T11:55:08.803Z,3.96
2017-12-29T11:57:36.213Z,3.99
2017-12-29T12:00:03.655Z,4.09
2017-12-29T12:02:31.062Z,4.12
2017-12-29T12:04:59.319Z,4.17
2017-12-29T12:07:26.743Z,4.23
2017-12-29T12:09:54.159Z,4.29
2017-12-29T12:12:21.604Z,4.35
2017-12-29T12:14:49.031Z,4.41
2017-12-29T12:17:16.443Z,4.46
2017-12-29T12:19:43.875Z,4.41
2017-12-29T12:22:11.282Z,4.33
2017-12-29T12:24:38.687Z,4.24
2017-12-29T12:27:06.128Z,4.22
2017-12-29T12:29:33.539Z,4.21
2017-12-29T12:32:01.036Z,4.23
2017-12-29T12:34:28.450Z,4.25
2017-12-29T12:36:55.870Z,4.26
2017-12-29T12:39:23.292Z,4.20
2017-12-29T12:41:50.723Z,4.19
2017-12-29T12:44:18.143Z,4.13
2017-12-29T12:46:45.582Z,4.13
2017-12-29T12:49:13.027Z,4.14
2017-12-29T12:51:40.478Z,4.15
2017-12-29T12:54:07.903Z,4.17
2017-12-29T12:56:35.331Z,4.21
2017-12-29T12:59:02.743Z,4.19
2017-12-29T13:01:30.155Z,4.26
2017-12-29T13:03:57.599Z,4.34
2017-12-29T13:06:25.020Z,4.38
2017-12-29T13:08:52.441Z,4.39
2017-12-29T13:11:19.966Z,4.36
2017-12-29T13:13:47.379Z,4.29
2017-12-29T13:16:14.802Z,4.23
2017-12-29T13:18:42.254Z,4.21
2017-12-29T13:21:09.662Z,4.22
2017-12-29T13:23:37.108Z,4.20
2017-12-29T13:26:04.559Z,4.19
2017-12-29T13:28:32.000Z,4.19
2017-12-29T13:30:59.496Z,4.18
2017-12-29T13:33:26.935Z,4.18
2017-12-29T13:35:54.348Z,4.16
2017-12-29T13:38:21.763Z,4.19
2017-12-29T13:40:49.216Z,4.15
2017-12-29T13:43:16.634Z,4.13
2017-12-29T13:45:44.096Z,4.12
2017-12-29T13:48:11.555Z,4.13
2017-12-29T13:50:38.958Z,4.14
2017-12-29T13:53:06.411Z,4.12
2017-12-29T13:55:33.858Z,4.10
2017-12-29T13:58:01.281Z,4.07
2017-12-29T14:00:28.720Z,4.04
2017-12-29T14:02:56.167Z,3.98
2017-12-29T14:05:23.591Z,3.91
2017-12-29T14:07:51.076Z,3.86
2017-12-29T14:10:19.433Z,3.83
2017-12-29T14:12:46.875Z,3.80
2017-12-29T14:15:14.279Z,3.79
2017-12-29T14:17:41.690Z,3.76
2017-12-29T14:20:09.150Z,3.74
2017-12-29T14:22:36.561Z,3.71
2017-12-29T14:25:03.978Z,3.66
2017-12-29T14:27:31.419Z,3.62
2017-12-29T14:29:58.827Z,3.61
2017-12-29T14:32:26.334Z,3.55
2017-12-29T14:34:54.180Z,3.49
2017-12-29T14:37:21.575Z,3.46
2017-12-29T14:39:48.983Z,3.43
2017-12-29T14:42:16.408Z,3.38
2017-12-29T14:44:43.804Z,3.35
2017-12-29T14:47:11.274Z,3.33
2017-12-29T14:49:38.705Z,3.29
2017-12-29T14:52:06.099Z,3.24
2017-12-29T14:54:33.539Z,3.18
2017-12-29T14:57:00.989Z,3.15
2017-12-29T14:59:28.386Z,3.10
2017-12-29T15:01:55.972Z,3.07
2017-12-29T15:04:23.380Z,3.02
2017-12-29T15:06:50.782Z,2.98
2017-12-29T15:09:18.211Z,2.95
2017-12-29T15:11:45.624Z,2.92
2017-12-29T15:14:13.031Z,2.88
2017-12-29T15:16:40.459Z,2.83
2017-12-29T15:19:07.866Z,2.78
2017-12-29T15:21:35.263Z,2.75
2017-12-29T15:24:02.706Z,2.71
2017-12-29T15:26:30.110Z,2.65
2017-12-29T15:28:57.535Z,2.59
2017-12-29T15:31:24.975Z,2.58
2017-12-29T15:33:52.399Z,2.54
2017-12-29T15:36:19.815Z,2.53
2017-12-29T15:38:47.245Z,2.48
2017-12-29T15:41:14.715Z,2.43
2017-12-29T15:43:42.192Z,2.42
2017-12-29T15:46:09.623Z,2.40
2017-12-29T15:48:37.031Z,2.40
2017-12-29T15:51:04.465Z,2.33
2017-12-29T15:53:31.884Z,2.30
2017-12-29T15:55:59.348Z,2.27
2017-12-29T15:58:26.880Z,2.23
2017-12-29T16:00:56.898Z,2.17
2017-12-29T16:03:24.320Z,2.13
2017-12-29T16:05:51.851Z,2.09
2017-12-29T16:08:19.262Z,2.06
2017-12-29T16:10:46.683Z,2.01
2017-12-29T16:13:14.135Z,1.95
2017-12-29T16:15:41.531Z,1.88
2017-12-29T16:18:08.943Z,1.86
2017-12-29T16:20:36.398Z,1.82
2017-12-29T16:23:03.824Z,1.83
2017-12-29T16:25:31.234Z,1.83
2017-12-29T16:27:58.654Z,1.80
2017-12-29T16:30:26.084Z,1.74
2017-12-29T16:32:53.526Z,1.73
2017-12-29T16:35:21.085Z,1.72
2017-12-29T16:37:48.472Z,1.69
2017-12-29T16:40:15.894Z,1.68
2017-12-29T16:42:43.306Z,1.67
2017-12-29T16:45:10.785Z,1.61
2017-12-29T16:47:38.299Z,1.59
2017-12-29T16:50:05.702Z,1.56
2017-12-29T16:55:23.758Z,1.46
2017-12-29T16:57:51.164Z,1.42
2017-12-29T17:00:18.643Z,1.40
2017-12-29T17:02:46.083Z,1.35
2017-12-29T17:05:13.500Z,1.32
2017-12-29T17:07:40.918Z,1.30
2017-12-29T17:10:08.363Z,1.28
2017-12-29T17:12:35.803Z,1.28
2017-12-29T17:15:03.220Z,1.27
2017-12-29T17:17:30.675Z,1.28
2017-12-29T17:19:58.100Z,1.29
2017-12-29T17:22:25.531Z,1.25
2017-12-29T17:24:52.980Z,1.23
2017-12-29T17:27:20.396Z,1.18
2017-12-29T17:29:47.821Z,1.15
2017-12-29T17:32:15.267Z,1.10
2017-12-29T17:34:42.683Z,1.03
2017-12-29T17:37:10.110Z,0.98
2017-12-29T17:39:37.536Z,0.93
2017-12-29T17:42:05.000Z,0.91
2017-12-29T17:44:32.386Z,0.91
2017-12-29T17:46:59.820Z,0.90
2017-12-29T17:49:27.224Z,0.92
2017-12-29T17:51:54.648Z,0.91
2017-12-29T17:54:22.086Z,0.87
2017-12-29T17:56:49.501Z,0.79
2017-12-29T17:59:16.898Z,0.71
2017-12-29T18:01:44.350Z,0.65
2017-12-29T18:04:11.759Z,0.61
2017-12-29T18:06:39.259Z,0.60
2017-12-29T18:09:06.706Z,0.56
2017-12-29T18:11:34.115Z,0.54
2017-12-29T18:14:01.924Z,0.56
2017-12-29T18:16:29.482Z,0.56
2017-12-29T18:18:56.876Z,0.57
2017-12-29T18:21:24.301Z,0.53
2017-12-29T18:23:51.791Z,0.52
2017-12-29T18:26:19.253Z,0.52
2017-12-29T18:28:46.678Z,0.51
2017-12-29T18:31:14.417Z,0.51
2017-12-29T18:33:41.967Z,0.48
2017-12-29T18:36:09.450Z,0.46
2017-12-29T18:38:36.914Z,0.48
2017-12-29T18:41:04.333Z,0.45
2017-12-29T18:43:31.821Z,0.43
2017-12-29T18:45:59.227Z,0.42
2017-12-29T18:48:26.611Z,0.36
2017-12-29T18:50:54.190Z,0.35
2017-12-29T18:53:21.599Z,0.31
2017-12-29T18:55:49.016Z,0.31
2017-12-29T18:58:16.431Z,0.29
2017-12-29T19:00:43.915Z,0.30
2017-12-29T19:03:11.395Z,0.29
2017-12-29T19:05:38.934Z,0.29
2017-12-29T19:08:06.376Z,0.25
2017-12-29T19:10:33.785Z,0.26
2017-12-29T19:13:01.207Z,0.27
2017-12-29T19:15:28.610Z,0.27
2017-12-29T19:17:56.116Z,0.25
2017-12-29T19:20:23.530Z,0.24
2017-12-29T19:22:50.923Z,0.27
2017-12-29T19:25:18.395Z,0.23
2017-12-29T19:27:45.799Z,0.18
2017-12-29T19:30:13.217Z,0.17
2017-12-29T19:32:40.663Z,0.12
2017-12-29T19:35:08.097Z,0.14
2017-12-29T19:37:35.670Z,0.17
2017-12-29T19:40:03.080Z,0.23
2017-12-29T19:42:30.597Z,0.23
2017-12-29T19:44:58.006Z,0.18
2017-12-29T19:47:25.405Z,0.15
2017-12-29T19:49:52.822Z,0.15
2017-12-29T19:52:20.317Z,0.14
2017-12-29T19:54:47.790Z,0.16
2017-12-29T19:57:15.222Z,0.13
2017-12-29T19:59:42.613Z,0.04
2017-12-29T20:02:10.033Z,-0.01
2017-12-29T20:04:37.474Z,-0.02
2017-12-29T20:07:04.950Z,-0.07
2017-12-29T20:09:32.351Z,-0.09
2017-12-29T20:11:59.874Z,-0.14
2017-12-29T20:14:27.321Z,-0.16
2017-12-29T20:16:54.731Z,-0.18
2017-12-29T20:19:22.244Z,-0.14
2017-12-29T20:21:49.647Z,-0.16
2017-12-29T20:24:17.084Z,-0.19
2017-12-29T20:26:44.694Z,-0.25
2017-12-29T20:29:12.092Z,-0.31
2017-12-29T20:31:39.518Z,-0.30
2017-12-29T20:34:06.951Z,-0.39
2017-12-29T20:36:34.354Z,-0.39
2017-12-29T20:39:01.803Z,-0.43
2017-12-29T20:41:29.228Z,-0.42
2017-12-29T20:43:56.642Z,-0.39
2017-12-29T20:46:24.060Z,-0.38
2017-12-29T20:48:51.551Z,-0.40
2017-12-29T20:51:18.942Z,-0.43
2017-12-29T20:53:46.354Z,-0.45
2017-12-29T20:56:13.797Z,-0.44
2017-12-29T20:58:41.206Z,-0.48
2017-12-29T21:01:08.711Z,-0.51
2017-12-29T21:03:36.133Z,-0.50
2017-12-29T21:06:03.538Z,-0.47
2017-12-29T21:08:30.984Z,-0.48
2017-12-29T21:10:58.421Z,-0.52
2017-12-29T21:13:25.850Z,-0.56
2017-12-29T21:15:53.266Z,-0.52
2017-12-29T21:18:20.706Z,-0.51
2017-12-29T21:20:48.170Z,-0.47
2017-12-29T21:23:15.578Z,-0.48
2017-12-29T21:25:42.993Z,-0.49
2017-12-29T21:28:10.454Z,-0.47
2017-12-29T21:30:37.887Z,-0.49
2017-12-29T21:33:05.305Z,-0.50
2017-12-29T21:35:32.891Z,-0.52
2017-12-29T21:38:00.291Z,-0.52
2017-12-29T21:40:27.715Z,-0.52
2017-12-29T21:42:55.156Z,-0.51
2017-12-29T21:45:22.564Z,-0.52
2017-12-29T21:47:50.074Z,-0.55
2017-12-29T21:50:17.511Z,-0.54
2017-12-29T21:52:45.008Z,-0.50
2017-12-29T21:55:12.454Z,-0.53
2017-12-29T21:57:39.862Z,-0.55
2017-12-29T22:00:07.374Z,-0.56
2017-12-29T22:02:34.799Z,-0.56
2017-12-29T22:05:02.211Z,-0.57
2017-12-29T22:07:29.620Z,-0.58
2017-12-29T22:09:57.071Z,-0.57
2017-12-29T22:12:24.482Z,-0.57
2017-12-29T22:14:51.914Z,-0.59
2017-12-29T22:17:19.368Z,-0.59
2017-12-29T22:19:46.775Z,-0.63
2017-12-29T22:22:14.180Z,-0.65
2017-12-29T22:24:41.646Z,-0.60
2017-12-29T22:27:09.096Z,-0.63
2017-12-29T22:29:36.539Z,-0.64
2017-12-29T22:32:03.959Z,-0.66
2017-12-29T22:34:31.458Z,-0.67
2017-12-29T22:36:58.977Z,-0.71
2017-12-29T22:39:26.374Z,-0.72
2017-12-29T22:41:53.780Z,-0.71
2017-12-29T22:44:21.194Z,-0.71
2017-12-29T22:46:48.628Z,-0.71
2017-12-29T22:49:16.205Z,-0.72
2017-12-29T22:51:43.687Z,-0.72
2017-12-29T22:54:11.127Z,-0.71
2017-12-29T22:56:38.534Z,-0.75
2017-12-29T22:59:05.944Z,-0.72
2017-12-29T23:01:33.367Z,-0.72
2017-12-29T23:04:00.775Z,-0.73
2017-12-29T23:06:28.207Z,-0.73
2017-12-29T23:08:55.632Z,-0.74
2017-12-29T23:11:23.051Z,-0.76
2017-12-29T23:13:50.582Z,-0.76
2017-12-29T23:16:17.991Z,-0.78
2017-12-29T23:18:45.423Z,-0.82
2017-12-29T23:21:12.938Z,-0.86
2017-12-29T23:23:40.351Z,-0.85
2017-12-29T23:26:07.782Z,-0.84
2017-12-29T23:28:35.197Z,-0.82
2017-12-29T23:31:02.619Z,-0.82
2017-12-29T23:33:30.071Z,-0.85
2017-12-29T23:35:57.478Z,-0.81
2017-12-29T23:38:24.923Z,-0.81
2017-12-29T23:40:52.343Z,-0.84
2017-12-29T23:43:19.750Z,-0.84
2017-12-29T23:45:47.166Z,-0.84
2017-12-29T23:48:14.652Z,-0.84
2017-12-29T23:50:42.055Z,-0.84
2017-12-29T23:53:09.466Z,-0.85
2017-12-29T23:55:36.917Z,-0.82
2017-12-29T23:58:04.302Z,-0.83
